sensor_id;sensor_type;location;lat;lon;timestamp;temperature;humidity
10010;DHT22;5044;48.652;9.250;2023-04-03T00:00:58;3.10;99.90
10010;DHT22;5044;48.652;9.250;2023-04-03T00:03:26;3.40;99.90
10010;DHT22;5044;48.652;9.250;2023-04-03T00:05:53;3.50;99.90
10010;DHT22;5044;48.652;9.250;2023-04-03T00:08:20;3.00;99.90
10010;DHT22;5044;48.652;9.250;2023-04-03T00:10:47;3.00;99.90
10010;DHT22;5044;48.652;9.250;2023-04-03T00:13:14;3.10;99.90
10010;DHT22;5044;48.652;9.250;2023-04-03T00:15:42;3.30;99.90
10010;DHT22;5044;48.652;9.250;2023-04-03T00:18:09;3.50;99.90
10010;DHT22;5044;48.652;9.250;2023-04-03T00:20:37;3.00;99.90
10010;DHT22;5044;48.652;9.250;2023-04-03T00:23:04;3.30;99.90
10010;DHT22;5044;48.652;9.250;2023-04-03T00:25:30;2.90;99.90
10010;DHT22;5044;48.652;9.250;2023-04-03T00:27:57;3.00;99.90
10010;DHT22;5044;48.652;9.250;2023-04-03T00:30:24;3.50;99.90
10010;DHT22;5044;48.652;9.250;2023-04-03T00:32:52;2.90;99.90
10010;DHT22;5044;48.652;9.250;2023-04-03T00:35:20;3.10;99.90
10010;DHT22;5044;48.652;9.250;2023-04-03T00:37:51;3.60;99.90
10010;DHT22;5044;48.652;9.250;2023-04-03T00:40:18;2.70;99.90
10010;DHT22;5044;48.652;9.250;2023-04-03T00:42:47;2.80;99.90
10010;DHT22;5044;48.652;9.250;2023-04-03T00:45:27;2.60;99.90
10010;DHT22;5044;48.652;9.250;2023-04-03T00:47:54;2.60;99.90
10010;DHT22;5044;48.652;9.250;2023-04-03T00:50:22;3.10;99.90
10010;DHT22;5044;48.652;9.250;2023-04-03T00:52:51;2.50;99.90
10010;DHT22;5044;48.652;9.250;2023-04-03T00:55:18;2.90;99.90
10010;DHT22;5044;48.652;9.250;2023-04-03T00:57:46;2.40;99.90
10010;DHT22;5044;48.652;9.250;2023-04-03T01:00:16;3.00;99.90
10010;DHT22;5044;48.652;9.250;2023-04-03T01:02:45;2.40;99.90
10010;DHT22;5044;48.652;9.250;2023-04-03T01:05:12;2.50;99.90
10010;DHT22;5044;48.652;9.250;2023-04-03T01:07:40;2.30;99.90
10010;DHT22;5044;48.652;9.250;2023-04-03T01:10:10;2.50;99.90
10010;DHT22;5044;48.652;9.250;2023-04-03T01:12:41;2.70;99.90
10010;DHT22;5044;48.652;9.250;2023-04-03T01:15:11;2.40;99.90
10010;DHT22;5044;48.652;9.250;2023-04-03T01:17:40;2.30;99.90
10010;DHT22;5044;48.652;9.250;2023-04-03T01:23:36;2.30;99.90
10010;DHT22;5044;48.652;9.250;2023-04-03T01:26:08;2.30;99.90
10010;DHT22;5044;48.652;9.250;2023-04-03T01:28:37;2.30;99.90
10010;DHT22;5044;48.652;9.250;2023-04-03T01:31:11;2.40;99.90
10010;DHT22;5044;48.652;9.250;2023-04-03T01:33:42;2.30;99.90
10010;DHT22;5044;48.652;9.250;2023-04-03T01:36:15;3.00;99.90
10010;DHT22;5044;48.652;9.250;2023-04-03T01:38:42;2.30;99.90
10010;DHT22;5044;48.652;9.250;2023-04-03T01:41:10;2.60;99.90
10010;DHT22;5044;48.652;9.250;2023-04-03T01:43:37;2.50;99.90
10010;DHT22;5044;48.652;9.250;2023-04-03T01:46:04;2.30;99.90
10010;DHT22;5044;48.652;9.250;2023-04-03T01:48:30;2.20;99.90
10010;DHT22;5044;48.652;9.250;2023-04-03T01:50:59;2.20;99.90
10010;DHT22;5044;48.652;9.250;2023-04-03T01:53:26;2.70;99.90
10010;DHT22;5044;48.652;9.250;2023-04-03T01:55:52;2.10;99.90
10010;DHT22;5044;48.652;9.250;2023-04-03T01:58:19;2.10;99.90
10010;DHT22;5044;48.652;9.250;2023-04-03T02:00:46;2.10;99.90
10010;DHT22;5044;48.652;9.250;2023-04-03T02:03:13;2.10;99.90
10010;DHT22;5044;48.652;9.250;2023-04-03T02:05:40;2.00;99.90
10010;DHT22;5044;48.652;9.250;2023-04-03T02:08:08;2.00;99.90
10010;DHT22;5044;48.652;9.250;2023-04-03T02:10:35;2.00;99.90
10010;DHT22;5044;48.652;9.250;2023-04-03T02:13:02;2.00;99.90
10010;DHT22;5044;48.652;9.250;2023-04-03T02:15:29;2.20;99.90
10010;DHT22;5044;48.652;9.250;2023-04-03T02:17:56;2.40;99.90
10010;DHT22;5044;48.652;9.250;2023-04-03T02:20:23;2.00;99.90
10010;DHT22;5044;48.652;9.250;2023-04-03T02:22:50;2.00;99.90
10010;DHT22;5044;48.652;9.250;2023-04-03T02:25:18;2.00;99.90
10010;DHT22;5044;48.652;9.250;2023-04-03T02:27:45;2.00;99.90
10010;DHT22;5044;48.652;9.250;2023-04-03T02:30:12;2.30;99.90
10010;DHT22;5044;48.652;9.250;2023-04-03T02:32:40;2.00;99.90
10010;DHT22;5044;48.652;9.250;2023-04-03T02:35:08;2.00;99.90
10010;DHT22;5044;48.652;9.250;2023-04-03T02:37:35;2.00;99.90
10010;DHT22;5044;48.652;9.250;2023-04-03T02:40:02;2.10;99.90
10010;DHT22;5044;48.652;9.250;2023-04-03T02:42:30;2.00;99.90
10010;DHT22;5044;48.652;9.250;2023-04-03T02:44:57;2.00;99.90
10010;DHT22;5044;48.652;9.250;2023-04-03T02:47:25;2.00;99.90
10010;DHT22;5044;48.652;9.250;2023-04-03T02:49:52;2.10;99.90
10010;DHT22;5044;48.652;9.250;2023-04-03T02:52:19;2.70;99.90
10010;DHT22;5044;48.652;9.250;2023-04-03T02:54:46;2.50;99.90
10010;DHT22;5044;48.652;9.250;2023-04-03T02:57:13;2.10;99.90
10010;DHT22;5044;48.652;9.250;2023-04-03T02:59:42;2.10;99.90
10010;DHT22;5044;48.652;9.250;2023-04-03T03:02:09;3.00;99.90
10010;DHT22;5044;48.652;9.250;2023-04-03T03:04:36;2.20;99.90
10010;DHT22;5044;48.652;9.250;2023-04-03T03:07:03;2.20;99.90
10010;DHT22;5044;48.652;9.250;2023-04-03T03:09:30;3.00;99.90
10010;DHT22;5044;48.652;9.250;2023-04-03T03:11:57;2.10;99.90
10010;DHT22;5044;48.652;9.250;2023-04-03T03:14:24;2.10;99.90
10010;DHT22;5044;48.652;9.250;2023-04-03T03:16:52;2.40;99.90
10010;DHT22;5044;48.652;9.250;2023-04-03T03:19:19;2.10;99.90
10010;DHT22;5044;48.652;9.250;2023-04-03T03:21:46;2.70;99.90
10010;DHT22;5044;48.652;9.250;2023-04-03T03:24:12;2.00;99.90
10010;DHT22;5044;48.652;9.250;2023-04-03T03:26:41;2.50;99.90
10010;DHT22;5044;48.652;9.250;2023-04-03T03:29:08;2.10;99.90
10010;DHT22;5044;48.652;9.250;2023-04-03T03:31:35;2.10;99.90
10010;DHT22;5044;48.652;9.250;2023-04-03T03:34:03;2.60;99.90
10010;DHT22;5044;48.652;9.250;2023-04-03T03:36:30;2.10;99.90
10010;DHT22;5044;48.652;9.250;2023-04-03T03:38:57;2.10;99.90
10010;DHT22;5044;48.652;9.250;2023-04-03T03:41:24;2.70;99.90
10010;DHT22;5044;48.652;9.250;2023-04-03T03:43:50;2.10;99.90
10010;DHT22;5044;48.652;9.250;2023-04-03T03:46:17;2.10;99.90
10010;DHT22;5044;48.652;9.250;2023-04-03T03:48:44;2.20;99.90
10010;DHT22;5044;48.652;9.250;2023-04-03T03:51:12;2.00;99.90
10010;DHT22;5044;48.652;9.250;2023-04-03T03:53:39;2.10;99.90
10010;DHT22;5044;48.652;9.250;2023-04-03T03:56:06;2.10;99.90
10010;DHT22;5044;48.652;9.250;2023-04-03T03:58:33;2.10;99.90
10010;DHT22;5044;48.652;9.250;2023-04-03T04:01:01;2.10;99.90
10010;DHT22;5044;48.652;9.250;2023-04-03T04:03:28;2.10;99.90
10010;DHT22;5044;48.652;9.250;2023-04-03T04:05:55;2.70;99.90
10010;DHT22;5044;48.652;9.250;2023-04-03T04:08:24;2.80;99.90
10010;DHT22;5044;48.652;9.250;2023-04-03T04:10:50;2.10;99.90
10010;DHT22;5044;48.652;9.250;2023-04-03T04:13:17;2.10;99.90
10010;DHT22;5044;48.652;9.250;2023-04-03T04:15:44;2.20;99.90
10010;DHT22;5044;48.652;9.250;2023-04-03T04:18:11;2.20;99.90
10010;DHT22;5044;48.652;9.250;2023-04-03T04:20:38;2.20;99.90
10010;DHT22;5044;48.652;9.250;2023-04-03T04:23:04;2.20;99.90
10010;DHT22;5044;48.652;9.250;2023-04-03T04:25:33;2.20;99.90
10010;DHT22;5044;48.652;9.250;2023-04-03T04:27:59;2.50;99.90
10010;DHT22;5044;48.652;9.250;2023-04-03T04:30:26;2.20;99.90
10010;DHT22;5044;48.652;9.250;2023-04-03T04:32:53;2.60;99.90
10010;DHT22;5044;48.652;9.250;2023-04-03T04:35:20;2.80;99.90
10010;DHT22;5044;48.652;9.250;2023-04-03T04:37:47;2.90;99.90
10010;DHT22;5044;48.652;9.250;2023-04-03T04:40:14;2.20;99.90
10010;DHT22;5044;48.652;9.250;2023-04-03T04:42:42;2.20;99.90
10010;DHT22;5044;48.652;9.250;2023-04-03T04:45:10;2.20;99.90
10010;DHT22;5044;48.652;9.250;2023-04-03T04:47:36;1.90;99.90
10010;DHT22;5044;48.652;9.250;2023-04-03T04:50:04;2.60;99.90
10010;DHT22;5044;48.652;9.250;2023-04-03T04:52:32;2.20;99.90
10010;DHT22;5044;48.652;9.250;2023-04-03T04:54:58;2.60;99.90
10010;DHT22;5044;48.652;9.250;2023-04-03T04:57:25;2.20;99.90
10010;DHT22;5044;48.652;9.250;2023-04-03T04:59:54;2.40;99.90
10010;DHT22;5044;48.652;9.250;2023-04-03T05:02:20;2.60;99.90
10010;DHT22;5044;48.652;9.250;2023-04-03T05:04:47;2.90;99.90
10010;DHT22;5044;48.652;9.250;2023-04-03T05:07:15;2.10;99.90
10010;DHT22;5044;48.652;9.250;2023-04-03T05:09:42;2.10;99.90
10010;DHT22;5044;48.652;9.250;2023-04-03T05:12:09;2.60;99.90
10010;DHT22;5044;48.652;9.250;2023-04-03T05:14:36;2.50;99.90
10010;DHT22;5044;48.652;9.250;2023-04-03T05:17:04;2.70;99.90
10010;DHT22;5044;48.652;9.250;2023-04-03T05:19:31;2.60;99.90
10010;DHT22;5044;48.652;9.250;2023-04-03T05:21:58;2.20;99.90
10010;DHT22;5044;48.652;9.250;2023-04-03T05:24:25;2.80;99.90
10010;DHT22;5044;48.652;9.250;2023-04-03T05:26:51;2.20;99.90
10010;DHT22;5044;48.652;9.250;2023-04-03T05:29:18;2.20;99.90
10010;DHT22;5044;48.652;9.250;2023-04-03T05:31:45;2.20;99.90
10010;DHT22;5044;48.652;9.250;2023-04-03T05:34:13;2.20;99.90
10010;DHT22;5044;48.652;9.250;2023-04-03T05:36:40;2.20;99.90
10010;DHT22;5044;48.652;9.250;2023-04-03T05:39:07;2.80;99.90
10010;DHT22;5044;48.652;9.250;2023-04-03T05:41:35;2.80;99.90
10010;DHT22;5044;48.652;9.250;2023-04-03T05:44:01;2.70;99.90
10010;DHT22;5044;48.652;9.250;2023-04-03T05:46:28;2.80;99.90
10010;DHT22;5044;48.652;9.250;2023-04-03T05:48:55;2.30;98.80
10010;DHT22;5044;48.652;9.250;2023-04-03T05:51:25;2.30;98.70
10010;DHT22;5044;48.652;9.250;2023-04-03T05:53:59;3.10;99.70
10010;DHT22;5044;48.652;9.250;2023-04-03T05:56:27;2.70;99.90
10010;DHT22;5044;48.652;9.250;2023-04-03T05:58:54;2.40;99.90
10010;DHT22;5044;48.652;9.250;2023-04-03T06:01:21;2.40;99.90
10010;DHT22;5044;48.652;9.250;2023-04-03T06:03:48;2.40;99.90
10010;DHT22;5044;48.652;9.250;2023-04-03T06:06:15;2.40;99.90
10010;DHT22;5044;48.652;9.250;2023-04-03T06:08:43;2.40;99.90
10010;DHT22;5044;48.652;9.250;2023-04-03T06:11:11;2.40;99.90
10010;DHT22;5044;48.652;9.250;2023-04-03T06:13:38;2.50;99.90
10010;DHT22;5044;48.652;9.250;2023-04-03T06:16:05;2.50;99.70
10010;DHT22;5044;48.652;9.250;2023-04-03T06:18:32;2.60;99.90
10010;DHT22;5044;48.652;9.250;2023-04-03T06:20:59;3.00;99.20
10010;DHT22;5044;48.652;9.250;2023-04-03T06:23:28;2.60;99.10
10010;DHT22;5044;48.652;9.250;2023-04-03T06:25:56;3.10;99.10
10010;DHT22;5044;48.652;9.250;2023-04-03T06:28:23;2.70;98.90
10010;DHT22;5044;48.652;9.250;2023-04-03T06:30:50;2.80;99.70
10010;DHT22;5044;48.652;9.250;2023-04-03T06:33:17;3.40;99.90
10010;DHT22;5044;48.652;9.250;2023-04-03T06:35:44;2.90;98.80
10010;DHT22;5044;48.652;9.250;2023-04-03T06:38:11;2.90;98.50
10010;DHT22;5044;48.652;9.250;2023-04-03T06:40:39;3.00;98.20
10010;DHT22;5044;48.652;9.250;2023-04-03T06:43:07;2.90;97.00
10010;DHT22;5044;48.652;9.250;2023-04-03T06:45:34;2.90;97.10
10010;DHT22;5044;48.652;9.250;2023-04-03T06:48:01;3.00;97.00
10010;DHT22;5044;48.652;9.250;2023-04-03T06:50:28;3.10;97.10
10010;DHT22;5044;48.652;9.250;2023-04-03T06:52:55;3.10;95.20
10010;DHT22;5044;48.652;9.250;2023-04-03T06:55:22;3.20;96.60
10010;DHT22;5044;48.652;9.250;2023-04-03T06:57:49;3.60;97.00
10010;DHT22;5044;48.652;9.250;2023-04-03T07:00:18;3.40;98.10
10010;DHT22;5044;48.652;9.250;2023-04-03T07:02:45;3.50;97.20
10010;DHT22;5044;48.652;9.250;2023-04-03T07:05:12;3.60;96.10
10010;DHT22;5044;48.652;9.250;2023-04-03T07:07:39;3.70;95.90
10010;DHT22;5044;48.652;9.250;2023-04-03T07:10:07;4.20;95.60
10010;DHT22;5044;48.652;9.250;2023-04-03T07:12:35;3.90;94.60
10010;DHT22;5044;48.652;9.250;2023-04-03T07:15:02;3.90;95.00
10010;DHT22;5044;48.652;9.250;2023-04-03T07:17:30;4.00;93.90
10010;DHT22;5044;48.652;9.250;2023-04-03T07:19:57;4.60;95.10
10010;DHT22;5044;48.652;9.250;2023-04-03T07:22:24;4.00;95.30
10010;DHT22;5044;48.652;9.250;2023-04-03T07:24:51;4.30;94.70
10010;DHT22;5044;48.652;9.250;2023-04-03T07:27:18;4.70;95.90
10010;DHT22;5044;48.652;9.250;2023-04-03T07:29:45;4.70;93.60
10010;DHT22;5044;48.652;9.250;2023-04-03T07:32:13;4.40;93.50
10010;DHT22;5044;48.652;9.250;2023-04-03T07:34:41;4.60;94.50
10010;DHT22;5044;48.652;9.250;2023-04-03T07:37:08;4.60;94.70
10010;DHT22;5044;48.652;9.250;2023-04-03T07:39:35;4.60;93.70
10010;DHT22;5044;48.652;9.250;2023-04-03T07:42:02;4.60;93.60
10010;DHT22;5044;48.652;9.250;2023-04-03T07:44:29;4.70;94.30
10010;DHT22;5044;48.652;9.250;2023-04-03T07:46:56;5.10;92.10
10010;DHT22;5044;48.652;9.250;2023-04-03T07:49:23;5.00;92.80
10010;DHT22;5044;48.652;9.250;2023-04-03T07:51:52;4.80;93.80
10010;DHT22;5044;48.652;9.250;2023-04-03T07:54:20;4.90;93.10
10010;DHT22;5044;48.652;9.250;2023-04-03T07:56:47;5.70;93.00
10010;DHT22;5044;48.652;9.250;2023-04-03T07:59:14;5.00;91.90
10010;DHT22;5044;48.652;9.250;2023-04-03T08:01:41;5.10;91.90
10010;DHT22;5044;48.652;9.250;2023-04-03T08:04:08;5.90;93.10
10010;DHT22;5044;48.652;9.250;2023-04-03T08:06:35;5.50;91.10
10010;DHT22;5044;48.652;9.250;2023-04-03T08:09:04;6.00;90.70
10010;DHT22;5044;48.652;9.250;2023-04-03T08:11:31;5.70;91.30
10010;DHT22;5044;48.652;9.250;2023-04-03T08:13:57;5.70;91.30
10010;DHT22;5044;48.652;9.250;2023-04-03T08:16:25;5.70;90.80
10010;DHT22;5044;48.652;9.250;2023-04-03T08:18:53;5.70;91.50
10010;DHT22;5044;48.652;9.250;2023-04-03T08:21:20;5.80;90.10
10010;DHT22;5044;48.652;9.250;2023-04-03T08:23:48;5.90;86.60
10010;DHT22;5044;48.652;9.250;2023-04-03T08:26:18;6.00;88.90
10010;DHT22;5044;48.652;9.250;2023-04-03T08:28:46;6.00;88.50
10010;DHT22;5044;48.652;9.250;2023-04-03T08:31:14;6.10;81.50
10010;DHT22;5044;48.652;9.250;2023-04-03T08:33:42;6.10;84.80
10010;DHT22;5044;48.652;9.250;2023-04-03T08:36:17;6.30;89.10
10010;DHT22;5044;48.652;9.250;2023-04-03T08:38:44;6.50;89.50
10010;DHT22;5044;48.652;9.250;2023-04-03T08:41:14;6.70;87.10
10010;DHT22;5044;48.652;9.250;2023-04-03T08:44:02;6.70;86.80
10010;DHT22;5044;48.652;9.250;2023-04-03T08:46:40;7.20;85.90
10010;DHT22;5044;48.652;9.250;2023-04-03T08:49:13;6.60;80.50
10010;DHT22;5044;48.652;9.250;2023-04-03T08:51:41;6.60;80.90
10010;DHT22;5044;48.652;9.250;2023-04-03T08:54:21;6.90;82.60
10010;DHT22;5044;48.652;9.250;2023-04-03T08:56:50;7.00;83.00
10010;DHT22;5044;48.652;9.250;2023-04-03T08:59:25;7.30;81.20
10010;DHT22;5044;48.652;9.250;2023-04-03T09:15:21;7.60;71.30
10010;DHT22;5044;48.652;9.250;2023-04-03T09:18:05;7.50;75.80
10010;DHT22;5044;48.652;9.250;2023-04-03T09:24:32;7.60;75.00
10010;DHT22;5044;48.652;9.250;2023-04-03T09:28:04;7.40;79.00
10010;DHT22;5044;48.652;9.250;2023-04-03T09:34:32;7.80;79.10
10010;DHT22;5044;48.652;9.250;2023-04-03T09:41:02;7.30;70.10
10010;DHT22;5044;48.652;9.250;2023-04-03T09:47:36;7.60;68.10
10010;DHT22;5044;48.652;9.250;2023-04-03T09:50:52;7.90;69.60
10010;DHT22;5044;48.652;9.250;2023-04-03T09:53:40;7.20;67.80
10010;DHT22;5044;48.652;9.250;2023-04-03T09:56:33;7.70;66.10
10010;DHT22;5044;48.652;9.250;2023-04-03T09:59:18;8.00;70.10
10010;DHT22;5044;48.652;9.250;2023-04-03T10:02:04;7.90;70.10
10010;DHT22;5044;48.652;9.250;2023-04-03T10:12:08;8.10;68.00
10010;DHT22;5044;48.652;9.250;2023-04-03T10:17:55;8.20;63.00
10010;DHT22;5044;48.652;9.250;2023-04-03T10:21:10;8.50;62.40
10010;DHT22;5044;48.652;9.250;2023-04-03T10:24:05;8.00;60.00
10010;DHT22;5044;48.652;9.250;2023-04-03T10:26:43;8.40;62.80
10010;DHT22;5044;48.652;9.250;2023-04-03T10:30:04;8.60;63.90
10010;DHT22;5044;48.652;9.250;2023-04-03T10:36:32;8.80;62.20
10010;DHT22;5044;48.652;9.250;2023-04-03T10:42:18;9.00;59.00
10010;DHT22;5044;48.652;9.250;2023-04-03T10:48:29;9.10;60.60
10010;DHT22;5044;48.652;9.250;2023-04-03T10:51:13;8.90;59.70
10010;DHT22;5044;48.652;9.250;2023-04-03T10:54:20;9.10;59.90
10010;DHT22;5044;48.652;9.250;2023-04-03T10:57:00;9.10;59.10
10010;DHT22;5044;48.652;9.250;2023-04-03T10:59:33;9.00;62.60
10010;DHT22;5044;48.652;9.250;2023-04-03T11:02:40;8.80;61.40
10010;DHT22;5044;48.652;9.250;2023-04-03T11:05:25;9.10;63.00
10010;DHT22;5044;48.652;9.250;2023-04-03T11:08:19;8.70;59.10
10010;DHT22;5044;48.652;9.250;2023-04-03T11:11:39;8.00;59.20
10010;DHT22;5044;48.652;9.250;2023-04-03T11:14:51;7.60;61.40
10010;DHT22;5044;48.652;9.250;2023-04-03T11:27:02;7.90;65.80
10010;DHT22;5044;48.652;9.250;2023-04-03T11:30:00;8.50;66.30
10010;DHT22;5044;48.652;9.250;2023-04-03T11:32:59;8.00;65.70
10010;DHT22;5044;48.652;9.250;2023-04-03T11:35:49;8.60;62.00
10010;DHT22;5044;48.652;9.250;2023-04-03T11:38:35;8.00;62.70
10010;DHT22;5044;48.652;9.250;2023-04-03T11:41:15;7.80;59.00
10010;DHT22;5044;48.652;9.250;2023-04-03T12:10:35;8.20;65.50
10010;DHT22;5044;48.652;9.250;2023-04-03T12:13:21;8.10;62.60
10010;DHT22;5044;48.652;9.250;2023-04-03T12:16:07;8.10;64.80
10010;DHT22;5044;48.652;9.250;2023-04-03T12:19:41;8.10;62.00
10010;DHT22;5044;48.652;9.250;2023-04-03T12:22:16;8.00;65.10
10010;DHT22;5044;48.652;9.250;2023-04-03T12:24:52;8.60;64.40
10010;DHT22;5044;48.652;9.250;2023-04-03T12:27:58;8.50;63.60
10010;DHT22;5044;48.652;9.250;2023-04-03T12:30:57;8.70;64.20
10010;DHT22;5044;48.652;9.250;2023-04-03T12:34:04;8.60;58.50
10010;DHT22;5044;48.652;9.250;2023-04-03T12:37:01;8.40;58.50
10010;DHT22;5044;48.652;9.250;2023-04-03T12:40:06;8.80;59.20
10010;DHT22;5044;48.652;9.250;2023-04-03T12:43:02;8.20;55.60
10010;DHT22;5044;48.652;9.250;2023-04-03T12:45:42;7.60;55.00
10010;DHT22;5044;48.652;9.250;2023-04-03T12:48:22;7.60;56.80
10010;DHT22;5044;48.652;9.250;2023-04-03T12:50:52;7.60;59.70
10010;DHT22;5044;48.652;9.250;2023-04-03T12:53:37;8.30;61.10
10010;DHT22;5044;48.652;9.250;2023-04-03T12:56:25;7.90;57.30
10010;DHT22;5044;48.652;9.250;2023-04-03T12:59:35;8.20;60.90
10010;DHT22;5044;48.652;9.250;2023-04-03T13:02:28;8.50;60.70
10010;DHT22;5044;48.652;9.250;2023-04-03T13:05:04;8.50;58.20
10010;DHT22;5044;48.652;9.250;2023-04-03T13:07:44;8.60;59.30
10010;DHT22;5044;48.652;9.250;2023-04-03T13:10:20;8.80;58.50
10010;DHT22;5044;48.652;9.250;2023-04-03T13:12:48;8.60;56.40
10010;DHT22;5044;48.652;9.250;2023-04-03T13:18:51;8.90;59.00
10010;DHT22;5044;48.652;9.250;2023-04-03T13:21:32;8.60;56.60
10010;DHT22;5044;48.652;9.250;2023-04-03T13:24:24;8.10;53.70
10010;DHT22;5044;48.652;9.250;2023-04-03T13:26:59;8.50;57.90
10010;DHT22;5044;48.652;9.250;2023-04-03T13:29:36;8.40;56.30
10010;DHT22;5044;48.652;9.250;2023-04-03T13:32:21;8.40;57.00
10010;DHT22;5044;48.652;9.250;2023-04-03T13:35:02;8.10;55.80
10010;DHT22;5044;48.652;9.250;2023-04-03T13:37:55;8.10;57.40
10010;DHT22;5044;48.652;9.250;2023-04-03T13:40:50;8.20;58.30
10010;DHT22;5044;48.652;9.250;2023-04-03T13:44:03;8.40;58.60
10010;DHT22;5044;48.652;9.250;2023-04-03T13:47:42;8.30;58.60
10010;DHT22;5044;48.652;9.250;2023-04-03T13:50:25;8.60;56.90
10010;DHT22;5044;48.652;9.250;2023-04-03T13:53:22;8.40;55.50
10010;DHT22;5044;48.652;9.250;2023-04-03T13:56:18;8.60;56.20
10010;DHT22;5044;48.652;9.250;2023-04-03T13:59:20;8.70;58.40
10010;DHT22;5044;48.652;9.250;2023-04-03T14:04:48;8.90;57.60
10010;DHT22;5044;48.652;9.250;2023-04-03T14:07:43;8.40;54.10
10010;DHT22;5044;48.652;9.250;2023-04-03T14:10:45;8.40;54.60
10010;DHT22;5044;48.652;9.250;2023-04-03T14:15:16;8.80;59.40
10010;DHT22;5044;48.652;9.250;2023-04-03T14:17:23;9.10;57.90
10010;DHT22;5044;48.652;9.250;2023-04-03T14:20:33;9.30;56.20
10010;DHT22;5044;48.652;9.250;2023-04-03T14:22:50;9.20;55.20
10010;DHT22;5044;48.652;9.250;2023-04-03T14:25:49;9.00;52.50
10010;DHT22;5044;48.652;9.250;2023-04-03T14:28:24;9.10;53.80
10010;DHT22;5044;48.652;9.250;2023-04-03T14:30:57;9.40;54.00
10010;DHT22;5044;48.652;9.250;2023-04-03T14:33:29;8.90;55.90
10010;DHT22;5044;48.652;9.250;2023-04-03T14:36:13;9.20;57.60
10010;DHT22;5044;48.652;9.250;2023-04-03T14:38:44;8.80;55.40
10010;DHT22;5044;48.652;9.250;2023-04-03T14:41:30;8.70;54.20
10010;DHT22;5044;48.652;9.250;2023-04-03T14:44:16;8.70;53.40
10010;DHT22;5044;48.652;9.250;2023-04-03T14:47:04;8.60;55.60
10010;DHT22;5044;48.652;9.250;2023-04-03T14:49:36;8.80;55.30
10010;DHT22;5044;48.652;9.250;2023-04-03T14:52:05;8.80;54.80
10010;DHT22;5044;48.652;9.250;2023-04-03T14:54:40;9.00;55.40
10010;DHT22;5044;48.652;9.250;2023-04-03T14:57:15;9.20;54.50
10010;DHT22;5044;48.652;9.250;2023-04-03T14:59:44;9.20;53.90
10010;DHT22;5044;48.652;9.250;2023-04-03T15:02:34;9.40;53.60
10010;DHT22;5044;48.652;9.250;2023-04-03T15:05:37;8.80;54.60
10010;DHT22;5044;48.652;9.250;2023-04-03T15:08:18;8.80;53.50
10010;DHT22;5044;48.652;9.250;2023-04-03T15:11:14;8.40;54.70
10010;DHT22;5044;48.652;9.250;2023-04-03T15:13:48;8.60;56.40
10010;DHT22;5044;48.652;9.250;2023-04-03T15:16:23;8.50;54.80
10010;DHT22;5044;48.652;9.250;2023-04-03T15:18:51;7.90;54.70
10010;DHT22;5044;48.652;9.250;2023-04-03T15:21:28;8.30;57.90
10010;DHT22;5044;48.652;9.250;2023-04-03T15:24:11;8.20;56.30
10010;DHT22;5044;48.652;9.250;2023-04-03T15:27:07;7.70;54.80
10010;DHT22;5044;48.652;9.250;2023-04-03T15:30:00;8.40;57.50
10010;DHT22;5044;48.652;9.250;2023-04-03T15:32:55;8.20;57.80
10010;DHT22;5044;48.652;9.250;2023-04-03T15:35:27;8.20;54.00
10010;DHT22;5044;48.652;9.250;2023-04-03T15:38:04;8.00;55.30
10010;DHT22;5044;48.652;9.250;2023-04-03T15:40:41;8.10;56.60
10010;DHT22;5044;48.652;9.250;2023-04-03T15:43:14;8.10;57.70
10010;DHT22;5044;48.652;9.250;2023-04-03T15:45:44;7.90;54.20
10010;DHT22;5044;48.652;9.250;2023-04-03T15:48:18;7.70;54.40
10010;DHT22;5044;48.652;9.250;2023-04-03T15:50:51;7.40;54.00
10010;DHT22;5044;48.652;9.250;2023-04-03T15:53:22;7.40;54.60
10010;DHT22;5044;48.652;9.250;2023-04-03T15:55:54;7.70;56.10
10010;DHT22;5044;48.652;9.250;2023-04-03T15:58:26;7.30;53.40
10010;DHT22;5044;48.652;9.250;2023-04-03T16:01:22;7.20;53.90
10010;DHT22;5044;48.652;9.250;2023-04-03T16:04:02;7.40;54.30
10010;DHT22;5044;48.652;9.250;2023-04-03T16:06:44;6.90;53.90
10010;DHT22;5044;48.652;9.250;2023-04-03T16:09:26;6.90;54.80
10010;DHT22;5044;48.652;9.250;2023-04-03T16:12:04;6.80;54.90
10010;DHT22;5044;48.652;9.250;2023-04-03T16:14:52;6.70;54.00
10010;DHT22;5044;48.652;9.250;2023-04-03T16:17:38;6.90;57.80
10010;DHT22;5044;48.652;9.250;2023-04-03T16:20:34;7.10;59.30
10010;DHT22;5044;48.652;9.250;2023-04-03T16:23:10;7.20;59.10
10010;DHT22;5044;48.652;9.250;2023-04-03T16:25:43;7.20;59.20
10010;DHT22;5044;48.652;9.250;2023-04-03T16:28:12;7.20;58.60
10010;DHT22;5044;48.652;9.250;2023-04-03T16:30:39;7.00;57.10
10010;DHT22;5044;48.652;9.250;2023-04-03T16:33:09;6.90;58.70
10010;DHT22;5044;48.652;9.250;2023-04-03T16:35:58;7.10;58.50
10010;DHT22;5044;48.652;9.250;2023-04-03T16:49:21;6.70;56.30
10010;DHT22;5044;48.652;9.250;2023-04-03T16:51:52;6.90;56.90
10010;DHT22;5044;48.652;9.250;2023-04-03T16:54:23;6.60;54.90
10010;DHT22;5044;48.652;9.250;2023-04-03T17:04:18;6.70;58.70
10010;DHT22;5044;48.652;9.250;2023-04-03T17:23:56;6.40;60.40
10010;DHT22;5044;48.652;9.250;2023-04-03T17:26:26;6.50;64.40
10010;DHT22;5044;48.652;9.250;2023-04-03T17:28:57;6.50;62.30
10010;DHT22;5044;48.652;9.250;2023-04-03T17:31:25;6.40;61.00
10010;DHT22;5044;48.652;9.250;2023-04-03T17:33:52;6.20;60.00
10010;DHT22;5044;48.652;9.250;2023-04-03T17:36:20;6.20;61.80
10010;DHT22;5044;48.652;9.250;2023-04-03T17:38:48;6.20;62.70
10010;DHT22;5044;48.652;9.250;2023-04-03T17:41:20;6.10;61.10
10010;DHT22;5044;48.652;9.250;2023-04-03T17:43:48;6.10;65.40
10010;DHT22;5044;48.652;9.250;2023-04-03T17:46:21;6.00;64.30
10010;DHT22;5044;48.652;9.250;2023-04-03T17:48:49;6.10;62.70
10010;DHT22;5044;48.652;9.250;2023-04-03T17:51:20;5.90;65.90
10010;DHT22;5044;48.652;9.250;2023-04-03T17:53:48;5.90;63.00
10010;DHT22;5044;48.652;9.250;2023-04-03T17:56:20;5.80;62.30
10010;DHT22;5044;48.652;9.250;2023-04-03T17:58:48;5.80;65.10
10010;DHT22;5044;48.652;9.250;2023-04-03T18:01:17;5.80;62.40
10010;DHT22;5044;48.652;9.250;2023-04-03T18:03:45;5.50;58.50
10010;DHT22;5044;48.652;9.250;2023-04-03T18:06:14;5.40;59.00
10010;DHT22;5044;48.652;9.250;2023-04-03T18:08:43;5.30;59.60
10010;DHT22;5044;48.652;9.250;2023-04-03T18:11:12;5.30;62.30
10010;DHT22;5044;48.652;9.250;2023-04-03T18:13:41;5.40;64.50
10010;DHT22;5044;48.652;9.250;2023-04-03T18:16:11;5.70;62.40
10010;DHT22;5044;48.652;9.250;2023-04-03T18:18:38;5.30;66.00
10010;DHT22;5044;48.652;9.250;2023-04-03T18:21:08;5.20;61.70
10010;DHT22;5044;48.652;9.250;2023-04-03T18:23:36;4.80;61.30
10010;DHT22;5044;48.652;9.250;2023-04-03T18:26:04;4.80;60.60
10010;DHT22;5044;48.652;9.250;2023-04-03T18:28:32;5.00;63.30
10010;DHT22;5044;48.652;9.250;2023-04-03T18:31:01;4.90;63.50
10010;DHT22;5044;48.652;9.250;2023-04-03T18:33:28;5.30;63.20
10010;DHT22;5044;48.652;9.250;2023-04-03T18:36:16;4.60;63.30
10010;DHT22;5044;48.652;9.250;2023-04-03T18:39:08;4.50;62.00
10010;DHT22;5044;48.652;9.250;2023-04-03T18:41:39;4.50;64.50
10010;DHT22;5044;48.652;9.250;2023-04-03T18:44:32;4.40;62.30
10010;DHT22;5044;48.652;9.250;2023-04-03T18:47:53;4.30;62.60
10010;DHT22;5044;48.652;9.250;2023-04-03T19:31:18;3.50;68.60
10010;DHT22;5044;48.652;9.250;2023-04-03T20:04:46;3.40;70.60
10010;DHT22;5044;48.652;9.250;2023-04-03T20:07:14;3.40;72.20
10010;DHT22;5044;48.652;9.250;2023-04-03T20:09:41;3.30;71.40
10010;DHT22;5044;48.652;9.250;2023-04-03T20:12:13;3.40;75.20